sensor_id;sensor_type;location;lat;lon;timestamp;P1;durP1;ratioP1;P2;durP2;ratioP2
26253;SDS011;53339;51.378;0.094;2022-10-31T00:01:18;10.40;;;2.95;;
26253;SDS011;53339;51.378;0.094;2022-10-31T00:03:49;8.50;;;3.22;;
26253;SDS011;53339;51.378;0.094;2022-10-31T00:06:17;12.55;;;4.00;;
26253;SDS011;53339;51.378;0.094;2022-10-31T00:08:45;9.82;;;3.00;;
26253;SDS011;53339;51.378;0.094;2022-10-31T00:11:14;10.18;;;3.13;;
26253;SDS011;53339;51.378;0.094;2022-10-31T00:13:41;7.32;;;2.63;;
26253;SDS011;53339;51.378;0.094;2022-10-31T00:16:20;11.65;;;3.33;;
26253;SDS011;53339;51.378;0.094;2022-10-31T00:18:53;9.73;;;3.17;;
26253;SDS011;53339;51.378;0.094;2022-10-31T00:21:22;12.38;;;3.88;;
26253;SDS011;53339;51.378;0.094;2022-10-31T00:23:51;10.93;;;3.55;;
26253;SDS011;53339;51.378;0.094;2022-10-31T00:26:19;10.80;;;2.97;;
26253;SDS011;53339;51.378;0.094;2022-10-31T00:28:46;13.35;;;3.10;;
26253;SDS011;53339;51.378;0.094;2022-10-31T00:31:14;7.97;;;2.92;;
26253;SDS011;53339;51.378;0.094;2022-10-31T00:33:43;7.97;;;3.47;;
26253;SDS011;53339;51.378;0.094;2022-10-31T00:36:15;11.32;;;3.47;;
26253;SDS011;53339;51.378;0.094;2022-10-31T00:38:44;11.57;;;2.80;;
26253;SDS011;53339;51.378;0.094;2022-10-31T00:41:14;6.75;;;2.95;;
26253;SDS011;53339;51.378;0.094;2022-10-31T00:43:43;11.45;;;4.18;;
26253;SDS011;53339;51.378;0.094;2022-10-31T00:46:11;9.73;;;2.90;;
26253;SDS011;53339;51.378;0.094;2022-10-31T00:48:40;6.97;;;2.58;;
26253;SDS011;53339;51.378;0.094;2022-10-31T00:51:09;8.77;;;3.40;;
26253;SDS011;53339;51.378;0.094;2022-10-31T00:53:37;10.13;;;2.88;;
26253;SDS011;53339;51.378;0.094;2022-10-31T00:56:05;10.90;;;3.10;;
26253;SDS011;53339;51.378;0.094;2022-10-31T00:58:33;11.75;;;3.75;;
26253;SDS011;53339;51.378;0.094;2022-10-31T01:01:01;11.02;;;3.08;;
26253;SDS011;53339;51.378;0.094;2022-10-31T01:03:30;10.27;;;3.17;;
26253;SDS011;53339;51.378;0.094;2022-10-31T01:06:07;8.93;;;3.45;;
26253;SDS011;53339;51.378;0.094;2022-10-31T01:08:36;12.80;;;3.83;;
26253;SDS011;53339;51.378;0.094;2022-10-31T01:13:42;12.98;;;3.50;;
26253;SDS011;53339;51.378;0.094;2022-10-31T01:16:12;12.88;;;3.75;;
26253;SDS011;53339;51.378;0.094;2022-10-31T01:18:43;11.55;;;3.33;;
26253;SDS011;53339;51.378;0.094;2022-10-31T01:21:15;9.80;;;3.58;;
26253;SDS011;53339;51.378;0.094;2022-10-31T01:23:49;17.40;;;3.80;;
26253;SDS011;53339;51.378;0.094;2022-10-31T01:26:26;12.05;;;3.80;;
26253;SDS011;53339;51.378;0.094;2022-10-31T01:28:58;9.35;;;3.65;;
26253;SDS011;53339;51.378;0.094;2022-10-31T01:31:33;11.77;;;3.53;;
26253;SDS011;53339;51.378;0.094;2022-10-31T01:34:02;10.93;;;3.17;;
26253;SDS011;53339;51.378;0.094;2022-10-31T01:36:31;11.10;;;3.38;;
26253;SDS011;53339;51.378;0.094;2022-10-31T01:39:02;11.60;;;3.15;;
26253;SDS011;53339;51.378;0.094;2022-10-31T01:41:40;11.93;;;3.13;;
26253;SDS011;53339;51.378;0.094;2022-10-31T01:46:44;12.13;;;3.42;;
26253;SDS011;53339;51.378;0.094;2022-10-31T01:49:23;8.68;;;3.08;;
26253;SDS011;53339;51.378;0.094;2022-10-31T01:52:18;10.77;;;3.30;;
26253;SDS011;53339;51.378;0.094;2022-10-31T01:54:54;14.73;;;3.53;;
26253;SDS011;53339;51.378;0.094;2022-10-31T01:57:29;12.35;;;3.78;;
26253;SDS011;53339;51.378;0.094;2022-10-31T02:00:01;12.38;;;2.70;;
26253;SDS011;53339;51.378;0.094;2022-10-31T02:02:39;7.95;;;3.15;;
26253;SDS011;53339;51.378;0.094;2022-10-31T02:05:09;14.07;;;3.33;;
26253;SDS011;53339;51.378;0.094;2022-10-31T02:10:56;11.38;;;3.58;;
26253;SDS011;53339;51.378;0.094;2022-10-31T02:13:25;9.20;;;2.95;;
26253;SDS011;53339;51.378;0.094;2022-10-31T02:15:56;16.10;;;3.08;;
26253;SDS011;53339;51.378;0.094;2022-10-31T02:21:11;9.57;;;2.85;;
26253;SDS011;53339;51.378;0.094;2022-10-31T02:29:43;12.57;;;3.00;;
26253;SDS011;53339;51.378;0.094;2022-10-31T02:32:21;12.45;;;3.00;;
26253;SDS011;53339;51.378;0.094;2022-10-31T02:35:10;11.27;;;3.03;;
26253;SDS011;53339;51.378;0.094;2022-10-31T02:38:01;15.65;;;2.95;;
26253;SDS011;53339;51.378;0.094;2022-10-31T02:43:45;9.23;;;2.78;;
26253;SDS011;53339;51.378;0.094;2022-10-31T02:46:44;9.98;;;3.60;;
26253;SDS011;53339;51.378;0.094;2022-10-31T02:49:26;8.70;;;3.25;;
26253;SDS011;53339;51.378;0.094;2022-10-31T02:51:59;12.15;;;3.45;;
26253;SDS011;53339;51.378;0.094;2022-10-31T02:54:27;13.50;;;3.70;;
26253;SDS011;53339;51.378;0.094;2022-10-31T02:57:00;13.00;;;3.08;;
26253;SDS011;53339;51.378;0.094;2022-10-31T02:59:31;10.27;;;3.40;;
26253;SDS011;53339;51.378;0.094;2022-10-31T03:02:42;11.95;;;3.13;;
26253;SDS011;53339;51.378;0.094;2022-10-31T03:07:42;15.23;;;3.50;;
26253;SDS011;53339;51.378;0.094;2022-10-31T03:13:15;12.60;;;2.83;;
26253;SDS011;53339;51.378;0.094;2022-10-31T03:18:33;19.48;;;3.38;;
26253;SDS011;53339;51.378;0.094;2022-10-31T03:21:06;11.40;;;3.75;;
26253;SDS011;53339;51.378;0.094;2022-10-31T03:23:41;8.10;;;3.00;;
26253;SDS011;53339;51.378;0.094;2022-10-31T03:26:19;9.35;;;3.20;;
26253;SDS011;53339;51.378;0.094;2022-10-31T03:28:55;8.07;;;3.13;;
26253;SDS011;53339;51.378;0.094;2022-10-31T03:31:30;13.70;;;3.38;;
26253;SDS011;53339;51.378;0.094;2022-10-31T03:34:05;10.60;;;3.05;;
26253;SDS011;53339;51.378;0.094;2022-10-31T03:36:34;13.18;;;3.25;;
26253;SDS011;53339;51.378;0.094;2022-10-31T03:39:05;12.73;;;2.90;;
26253;SDS011;53339;51.378;0.094;2022-10-31T03:41:38;10.38;;;3.00;;
26253;SDS011;53339;51.378;0.094;2022-10-31T03:44:13;17.58;;;3.28;;
26253;SDS011;53339;51.378;0.094;2022-10-31T03:46:50;10.40;;;2.83;;
26253;SDS011;53339;51.378;0.094;2022-10-31T03:49:17;15.20;;;2.95;;
26253;SDS011;53339;51.378;0.094;2022-10-31T03:57:07;9.90;;;2.67;;
26253;SDS011;53339;51.378;0.094;2022-10-31T03:59:39;15.88;;;3.90;;
26253;SDS011;53339;51.378;0.094;2022-10-31T04:02:15;10.27;;;3.28;;
26253;SDS011;53339;51.378;0.094;2022-10-31T04:04:45;12.68;;;3.15;;
26253;SDS011;53339;51.378;0.094;2022-10-31T04:07:14;12.05;;;3.40;;
26253;SDS011;53339;51.378;0.094;2022-10-31T04:09:44;13.25;;;3.92;;
26253;SDS011;53339;51.378;0.094;2022-10-31T04:12:15;9.93;;;3.55;;
26253;SDS011;53339;51.378;0.094;2022-10-31T04:14:49;13.00;;;3.47;;
26253;SDS011;53339;51.378;0.094;2022-10-31T04:17:19;17.35;;;3.38;;
26253;SDS011;53339;51.378;0.094;2022-10-31T04:19:50;13.38;;;3.38;;
26253;SDS011;53339;51.378;0.094;2022-10-31T04:22:18;10.48;;;3.38;;
26253;SDS011;53339;51.378;0.094;2022-10-31T04:24:45;14.13;;;3.58;;
26253;SDS011;53339;51.378;0.094;2022-10-31T04:27:15;17.35;;;3.22;;
26253;SDS011;53339;51.378;0.094;2022-10-31T04:29:43;14.52;;;3.78;;
26253;SDS011;53339;51.378;0.094;2022-10-31T04:32:12;15.70;;;3.45;;
26253;SDS011;53339;51.378;0.094;2022-10-31T04:34:39;18.13;;;3.17;;
26253;SDS011;53339;51.378;0.094;2022-10-31T04:37:07;15.60;;;3.38;;
26253;SDS011;53339;51.378;0.094;2022-10-31T04:39:34;16.15;;;4.45;;
26253;SDS011;53339;51.378;0.094;2022-10-31T04:42:21;12.23;;;3.58;;
26253;SDS011;53339;51.378;0.094;2022-10-31T04:44:48;12.57;;;3.67;;
26253;SDS011;53339;51.378;0.094;2022-10-31T04:47:16;17.38;;;3.70;;
26253;SDS011;53339;51.378;0.094;2022-10-31T04:49:46;13.60;;;3.58;;
26253;SDS011;53339;51.378;0.094;2022-10-31T04:52:14;16.67;;;3.85;;
26253;SDS011;53339;51.378;0.094;2022-10-31T04:54:42;14.15;;;3.33;;
26253;SDS011;53339;51.378;0.094;2022-10-31T04:57:40;14.52;;;3.42;;
26253;SDS011;53339;51.378;0.094;2022-10-31T05:00:17;9.30;;;2.75;;
26253;SDS011;53339;51.378;0.094;2022-10-31T05:02:49;17.17;;;3.33;;
26253;SDS011;53339;51.378;0.094;2022-10-31T05:07:48;15.40;;;3.38;;
26253;SDS011;53339;51.378;0.094;2022-10-31T05:10:19;10.30;;;3.05;;
26253;SDS011;53339;51.378;0.094;2022-10-31T05:12:53;16.23;;;3.67;;
26253;SDS011;53339;51.378;0.094;2022-10-31T05:15:40;12.75;;;3.35;;
26253;SDS011;53339;51.378;0.094;2022-10-31T05:18:26;13.90;;;3.50;;
26253;SDS011;53339;51.378;0.094;2022-10-31T05:21:16;16.83;;;3.30;;
26253;SDS011;53339;51.378;0.094;2022-10-31T05:23:48;18.80;;;3.20;;
26253;SDS011;53339;51.378;0.094;2022-10-31T05:26:17;13.93;;;3.15;;
26253;SDS011;53339;51.378;0.094;2022-10-31T05:28:44;13.35;;;3.80;;
26253;SDS011;53339;51.378;0.094;2022-10-31T05:31:12;11.40;;;3.00;;
26253;SDS011;53339;51.378;0.094;2022-10-31T05:33:41;12.40;;;3.15;;
26253;SDS011;53339;51.378;0.094;2022-10-31T05:36:27;14.00;;;2.67;;
26253;SDS011;53339;51.378;0.094;2022-10-31T05:39:24;17.90;;;2.83;;
26253;SDS011;53339;51.378;0.094;2022-10-31T05:41:56;10.45;;;3.03;;
26253;SDS011;53339;51.378;0.094;2022-10-31T05:44:26;12.70;;;3.22;;
26253;SDS011;53339;51.378;0.094;2022-10-31T05:47:03;15.55;;;3.20;;
26253;SDS011;53339;51.378;0.094;2022-10-31T05:49:50;14.68;;;3.05;;
26253;SDS011;53339;51.378;0.094;2022-10-31T05:52:45;14.55;;;2.88;;
26253;SDS011;53339;51.378;0.094;2022-10-31T05:55:20;14.88;;;4.07;;
26253;SDS011;53339;51.378;0.094;2022-10-31T05:58:03;13.77;;;3.25;;
26253;SDS011;53339;51.378;0.094;2022-10-31T06:00:33;13.63;;;3.28;;
26253;SDS011;53339;51.378;0.094;2022-10-31T06:03:08;11.20;;;3.55;;
26253;SDS011;53339;51.378;0.094;2022-10-31T06:06:00;13.32;;;2.72;;
26253;SDS011;53339;51.378;0.094;2022-10-31T06:08:35;11.48;;;3.53;;
26253;SDS011;53339;51.378;0.094;2022-10-31T06:11:06;17.50;;;3.65;;
26253;SDS011;53339;51.378;0.094;2022-10-31T06:13:52;18.95;;;3.05;;
26253;SDS011;53339;51.378;0.094;2022-10-31T06:16:30;17.35;;;3.10;;
26253;SDS011;53339;51.378;0.094;2022-10-31T06:19:06;10.70;;;2.63;;
26253;SDS011;53339;51.378;0.094;2022-10-31T06:21:34;13.63;;;3.47;;
26253;SDS011;53339;51.378;0.094;2022-10-31T06:24:02;14.98;;;3.47;;
26253;SDS011;53339;51.378;0.094;2022-10-31T06:26:48;12.93;;;3.65;;
26253;SDS011;53339;51.378;0.094;2022-10-31T06:29:15;9.52;;;2.83;;
26253;SDS011;53339;51.378;0.094;2022-10-31T06:32:15;13.57;;;3.45;;
26253;SDS011;53339;51.378;0.094;2022-10-31T06:34:44;15.90;;;3.78;;
26253;SDS011;53339;51.378;0.094;2022-10-31T06:37:15;11.63;;;3.83;;
26253;SDS011;53339;51.378;0.094;2022-10-31T06:39:45;13.25;;;3.53;;
26253;SDS011;53339;51.378;0.094;2022-10-31T06:42:15;14.45;;;3.63;;
26253;SDS011;53339;51.378;0.094;2022-10-31T06:44:43;14.05;;;3.67;;
26253;SDS011;53339;51.378;0.094;2022-10-31T06:47:49;12.55;;;3.20;;
26253;SDS011;53339;51.378;0.094;2022-10-31T06:50:50;15.15;;;3.50;;
26253;SDS011;53339;51.378;0.094;2022-10-31T06:53:22;11.45;;;3.47;;
26253;SDS011;53339;51.378;0.094;2022-10-31T06:55:49;10.95;;;3.05;;
26253;SDS011;53339;51.378;0.094;2022-10-31T06:58:17;10.93;;;3.05;;
26253;SDS011;53339;51.378;0.094;2022-10-31T07:00:45;15.25;;;3.47;;
26253;SDS011;53339;51.378;0.094;2022-10-31T07:03:14;15.38;;;3.15;;
26253;SDS011;53339;51.378;0.094;2022-10-31T07:05:43;15.23;;;2.70;;
26253;SDS011;53339;51.378;0.094;2022-10-31T07:08:12;17.63;;;3.50;;
26253;SDS011;53339;51.378;0.094;2022-10-31T07:10:41;15.98;;;3.42;;
26253;SDS011;53339;51.378;0.094;2022-10-31T07:13:10;14.75;;;3.05;;
26253;SDS011;53339;51.378;0.094;2022-10-31T07:15:41;9.35;;;3.25;;
26253;SDS011;53339;51.378;0.094;2022-10-31T07:18:10;9.43;;;3.00;;
26253;SDS011;53339;51.378;0.094;2022-10-31T07:20:39;9.30;;;3.30;;
26253;SDS011;53339;51.378;0.094;2022-10-31T07:23:08;11.32;;;3.35;;
26253;SDS011;53339;51.378;0.094;2022-10-31T07:25:37;13.20;;;3.10;;
26253;SDS011;53339;51.378;0.094;2022-10-31T07:28:14;11.05;;;3.00;;
26253;SDS011;53339;51.378;0.094;2022-10-31T07:30:49;12.32;;;3.22;;
26253;SDS011;53339;51.378;0.094;2022-10-31T07:33:19;18.48;;;3.33;;
26253;SDS011;53339;51.378;0.094;2022-10-31T07:36:06;15.15;;;3.28;;
26253;SDS011;53339;51.378;0.094;2022-10-31T07:38:34;17.02;;;3.13;;
26253;SDS011;53339;51.378;0.094;2022-10-31T07:41:03;13.20;;;2.80;;
26253;SDS011;53339;51.378;0.094;2022-10-31T07:43:39;13.18;;;3.20;;
26253;SDS011;53339;51.378;0.094;2022-10-31T07:48:58;18.63;;;3.33;;
26253;SDS011;53339;51.378;0.094;2022-10-31T07:51:44;14.55;;;3.15;;
26253;SDS011;53339;51.378;0.094;2022-10-31T07:54:12;12.10;;;3.67;;
26253;SDS011;53339;51.378;0.094;2022-10-31T07:56:39;17.40;;;3.90;;
26253;SDS011;53339;51.378;0.094;2022-10-31T07:59:07;10.88;;;3.30;;
26253;SDS011;53339;51.378;0.094;2022-10-31T08:01:34;10.55;;;3.63;;
26253;SDS011;53339;51.378;0.094;2022-10-31T08:04:31;21.85;;;4.30;;
26253;SDS011;53339;51.378;0.094;2022-10-31T08:07:17;12.35;;;3.10;;
26253;SDS011;53339;51.378;0.094;2022-10-31T08:09:52;10.75;;;3.75;;
26253;SDS011;53339;51.378;0.094;2022-10-31T08:12:24;19.00;;;4.35;;
26253;SDS011;53339;51.378;0.094;2022-10-31T08:14:52;10.63;;;3.13;;
26253;SDS011;53339;51.378;0.094;2022-10-31T08:17:20;13.88;;;3.65;;
26253;SDS011;53339;51.378;0.094;2022-10-31T08:19:59;19.30;;;3.83;;
26253;SDS011;53339;51.378;0.094;2022-10-31T08:22:31;20.45;;;3.38;;
26253;SDS011;53339;51.378;0.094;2022-10-31T08:25:00;16.55;;;4.82;;
26253;SDS011;53339;51.378;0.094;2022-10-31T08:27:28;13.88;;;3.75;;
26253;SDS011;53339;51.378;0.094;2022-10-31T08:29:59;15.50;;;3.58;;
26253;SDS011;53339;51.378;0.094;2022-10-31T08:32:27;14.45;;;3.28;;
26253;SDS011;53339;51.378;0.094;2022-10-31T08:34:57;13.30;;;3.70;;
26253;SDS011;53339;51.378;0.094;2022-10-31T08:38:03;13.77;;;3.78;;
26253;SDS011;53339;51.378;0.094;2022-10-31T08:40:32;14.48;;;3.80;;
26253;SDS011;53339;51.378;0.094;2022-10-31T08:45:31;18.48;;;3.80;;
26253;SDS011;53339;51.378;0.094;2022-10-31T08:48:00;13.60;;;3.78;;
26253;SDS011;53339;51.378;0.094;2022-10-31T08:50:31;11.02;;;3.55;;
26253;SDS011;53339;51.378;0.094;2022-10-31T08:53:04;13.18;;;3.35;;
26253;SDS011;53339;51.378;0.094;2022-10-31T08:55:34;14.38;;;3.67;;
26253;SDS011;53339;51.378;0.094;2022-10-31T08:58:07;14.00;;;3.35;;
26253;SDS011;53339;51.378;0.094;2022-10-31T09:00:47;12.57;;;3.90;;
26253;SDS011;53339;51.378;0.094;2022-10-31T09:05:59;15.68;;;4.45;;
26253;SDS011;53339;51.378;0.094;2022-10-31T09:08:30;17.80;;;3.70;;
26253;SDS011;53339;51.378;0.094;2022-10-31T09:11:00;13.85;;;3.38;;
26253;SDS011;53339;51.378;0.094;2022-10-31T09:13:48;18.85;;;3.40;;
26253;SDS011;53339;51.378;0.094;2022-10-31T09:16:34;15.00;;;4.85;;
26253;SDS011;53339;51.378;0.094;2022-10-31T09:19:02;15.77;;;3.78;;
26253;SDS011;53339;51.378;0.094;2022-10-31T09:21:34;15.93;;;4.38;;
26253;SDS011;53339;51.378;0.094;2022-10-31T09:24:02;14.18;;;4.00;;
26253;SDS011;53339;51.378;0.094;2022-10-31T09:26:32;16.67;;;3.88;;
26253;SDS011;53339;51.378;0.094;2022-10-31T09:29:06;12.70;;;3.58;;
26253;SDS011;53339;51.378;0.094;2022-10-31T09:31:37;13.60;;;3.42;;
26253;SDS011;53339;51.378;0.094;2022-10-31T09:34:36;9.57;;;3.58;;
26253;SDS011;53339;51.378;0.094;2022-10-31T09:37:11;14.13;;;2.95;;
26253;SDS011;53339;51.378;0.094;2022-10-31T09:39:39;12.55;;;2.97;;
26253;SDS011;53339;51.378;0.094;2022-10-31T09:54:02;15.70;;;2.42;;
26253;SDS011;53339;51.378;0.094;2022-10-31T09:56:31;8.82;;;2.97;;
26253;SDS011;53339;51.378;0.094;2022-10-31T09:59:00;11.32;;;2.80;;
26253;SDS011;53339;51.378;0.094;2022-10-31T10:07:40;8.52;;;2.38;;
26253;SDS011;53339;51.378;0.094;2022-10-31T10:18:59;8.88;;;3.17;;
26253;SDS011;53339;51.378;0.094;2022-10-31T10:21:50;6.80;;;2.35;;
26253;SDS011;53339;51.378;0.094;2022-10-31T10:29:55;4.85;;;2.38;;
26253;SDS011;53339;51.378;0.094;2022-10-31T10:32:53;9.50;;;2.70;;
26253;SDS011;53339;51.378;0.094;2022-10-31T10:37:55;11.88;;;2.97;;
26253;SDS011;53339;51.378;0.094;2022-10-31T10:40:27;9.65;;;2.47;;
26253;SDS011;53339;51.378;0.094;2022-10-31T10:43:01;12.00;;;2.75;;
26253;SDS011;53339;51.378;0.094;2022-10-31T10:46:24;14.25;;;2.35;;
26253;SDS011;53339;51.378;0.094;2022-10-31T11:00:27;7.97;;;2.55;;
26253;SDS011;53339;51.378;0.094;2022-10-31T11:02:57;10.70;;;2.10;;
26253;SDS011;53339;51.378;0.094;2022-10-31T11:05:28;6.90;;;2.28;;
26253;SDS011;53339;51.378;0.094;2022-10-31T11:08:01;5.72;;;1.90;;
26253;SDS011;53339;51.378;0.094;2022-10-31T11:10:29;7.38;;;2.13;;
26253;SDS011;53339;51.378;0.094;2022-10-31T11:15:35;7.07;;;2.22;;
26253;SDS011;53339;51.378;0.094;2022-10-31T11:18:12;8.20;;;2.13;;
26253;SDS011;53339;51.378;0.094;2022-10-31T11:20:51;5.47;;;2.08;;
26253;SDS011;53339;51.378;0.094;2022-10-31T11:23:21;5.00;;;2.22;;
26253;SDS011;53339;51.378;0.094;2022-10-31T11:28:25;6.55;;;2.25;;
26253;SDS011;53339;51.378;0.094;2022-10-31T11:30:57;8.95;;;2.03;;
26253;SDS011;53339;51.378;0.094;2022-10-31T11:36:22;5.75;;;1.90;;
26253;SDS011;53339;51.378;0.094;2022-10-31T11:38:51;6.07;;;2.13;;
26253;SDS011;53339;51.378;0.094;2022-10-31T11:44:09;6.68;;;1.83;;
26253;SDS011;53339;51.378;0.094;2022-10-31T11:46:41;5.40;;;2.00;;
26253;SDS011;53339;51.378;0.094;2022-10-31T11:49:16;6.07;;;2.45;;
26253;SDS011;53339;51.378;0.094;2022-10-31T11:51:48;7.32;;;2.08;;
26253;SDS011;53339;51.378;0.094;2022-10-31T11:54:20;3.25;;;1.50;;
26253;SDS011;53339;51.378;0.094;2022-10-31T11:56:51;4.75;;;1.73;;
26253;SDS011;53339;51.378;0.094;2022-10-31T11:59:23;4.45;;;2.15;;
26253;SDS011;53339;51.378;0.094;2022-10-31T12:01:54;2.67;;;1.25;;
26253;SDS011;53339;51.378;0.094;2022-10-31T12:07:02;3.03;;;1.40;;
26253;SDS011;53339;51.378;0.094;2022-10-31T12:09:32;6.32;;;1.75;;
26253;SDS011;53339;51.378;0.094;2022-10-31T12:17:18;3.40;;;1.42;;
26253;SDS011;53339;51.378;0.094;2022-10-31T12:34:26;4.85;;;1.58;;
26253;SDS011;53339;51.378;0.094;2022-10-31T12:43:16;6.28;;;1.95;;
26253;SDS011;53339;51.378;0.094;2022-10-31T12:46:02;5.25;;;1.92;;
26253;SDS011;53339;51.378;0.094;2022-10-31T12:51:50;5.82;;;1.85;;
26253;SDS011;53339;51.378;0.094;2022-10-31T13:00:14;5.70;;;1.80;;
26253;SDS011;53339;51.378;0.094;2022-10-31T13:03:01;7.72;;;2.20;;
26253;SDS011;53339;51.378;0.094;2022-10-31T13:05:45;8.55;;;2.63;;
26253;SDS011;53339;51.378;0.094;2022-10-31T13:08:21;5.85;;;2.47;;
26253;SDS011;53339;51.378;0.094;2022-10-31T13:11:04;4.47;;;1.92;;
26253;SDS011;53339;51.378;0.094;2022-10-31T13:16:30;21.08;;;2.78;;
26253;SDS011;53339;51.378;0.094;2022-10-31T13:19:08;3.75;;;1.90;;
26253;SDS011;53339;51.378;0.094;2022-10-31T13:21:44;3.35;;;1.55;;
26253;SDS011;53339;51.378;0.094;2022-10-31T13:24:20;5.25;;;1.92;;
26253;SDS011;53339;51.378;0.094;2022-10-31T13:26:53;8.38;;;1.73;;
26253;SDS011;53339;51.378;0.094;2022-10-31T13:29:40;2.72;;;1.52;;
26253;SDS011;53339;51.378;0.094;2022-10-31T13:32:36;5.40;;;2.15;;
26253;SDS011;53339;51.378;0.094;2022-10-31T13:35:23;4.90;;;1.88;;
26253;SDS011;53339;51.378;0.094;2022-10-31T13:38:09;6.50;;;2.50;;
26253;SDS011;53339;51.378;0.094;2022-10-31T13:40:59;6.93;;;1.83;;
26253;SDS011;53339;51.378;0.094;2022-10-31T13:49:00;4.38;;;1.90;;
26253;SDS011;53339;51.378;0.094;2022-10-31T13:51:29;4.70;;;1.55;;
26253;SDS011;53339;51.378;0.094;2022-10-31T13:54:06;4.13;;;1.63;;
26253;SDS011;53339;51.378;0.094;2022-10-31T13:56:50;5.38;;;1.70;;
26253;SDS011;53339;51.378;0.094;2022-10-31T13:59:22;4.80;;;1.85;;
26253;SDS011;53339;51.378;0.094;2022-10-31T14:01:56;3.42;;;1.65;;
26253;SDS011;53339;51.378;0.094;2022-10-31T14:07:21;3.65;;;1.67;;
26253;SDS011;53339;51.378;0.094;2022-10-31T14:18:07;5.00;;;1.98;;
26253;SDS011;53339;51.378;0.094;2022-10-31T14:20:43;4.93;;;1.52;;
26253;SDS011;53339;51.378;0.094;2022-10-31T14:28:48;4.45;;;1.27;;
26253;SDS011;53339;51.378;0.094;2022-10-31T14:39:44;6.97;;;2.15;;
26253;SDS011;53339;51.378;0.094;2022-10-31T14:46:00;5.53;;;2.03;;
26253;SDS011;53339;51.378;0.094;2022-10-31T14:51:02;5.68;;;2.20;;
26253;SDS011;53339;51.378;0.094;2022-10-31T14:53:54;6.72;;;1.98;;
26253;SDS011;53339;51.378;0.094;2022-10-31T14:56:24;5.82;;;2.08;;
26253;SDS011;53339;51.378;0.094;2022-10-31T14:58:55;6.30;;;2.25;;
26253;SDS011;53339;51.378;0.094;2022-10-31T15:01:36;4.13;;;1.63;;
26253;SDS011;53339;51.378;0.094;2022-10-31T15:07:11;6.53;;;2.00;;
26253;SDS011;53339;51.378;0.094;2022-10-31T15:10:00;5.65;;;2.10;;
26253;SDS011;53339;51.378;0.094;2022-10-31T15:12:31;6.47;;;2.30;;
26253;SDS011;53339;51.378;0.094;2022-10-31T15:15:13;11.88;;;2.45;;
26253;SDS011;53339;51.378;0.094;2022-10-31T15:17:45;4.45;;;2.03;;
26253;SDS011;53339;51.378;0.094;2022-10-31T15:20:21;7.97;;;2.75;;
26253;SDS011;53339;51.378;0.094;2022-10-31T15:22:51;5.90;;;1.80;;
26253;SDS011;53339;51.378;0.094;2022-10-31T15:25:21;4.82;;;2.80;;
26253;SDS011;53339;51.378;0.094;2022-10-31T15:27:52;5.70;;;2.40;;
26253;SDS011;53339;51.378;0.094;2022-10-31T15:30:24;6.95;;;2.33;;
26253;SDS011;53339;51.378;0.094;2022-10-31T15:32:53;9.52;;;2.40;;
26253;SDS011;53339;51.378;0.094;2022-10-31T15:37:56;7.75;;;3.22;;
26253;SDS011;53339;51.378;0.094;2022-10-31T15:40:26;5.05;;;1.85;;
26253;SDS011;53339;51.378;0.094;2022-10-31T15:42:58;7.00;;;2.20;;
26253;SDS011;53339;51.378;0.094;2022-10-31T15:45:29;5.97;;;2.17;;
26253;SDS011;53339;51.378;0.094;2022-10-31T15:47:58;6.82;;;2.40;;
26253;SDS011;53339;51.378;0.094;2022-10-31T15:50:38;5.60;;;2.50;;
26253;SDS011;53339;51.378;0.094;2022-10-31T15:53:16;9.02;;;2.95;;
26253;SDS011;53339;51.378;0.094;2022-10-31T15:55:48;6.28;;;2.60;;
26253;SDS011;53339;51.378;0.094;2022-10-31T15:58:27;6.97;;;3.00;;
26253;SDS011;53339;51.378;0.094;2022-10-31T16:01:05;9.68;;;2.65;;
26253;SDS011;53339;51.378;0.094;2022-10-31T16:03:56;9.15;;;2.45;;
26253;SDS011;53339;51.378;0.094;2022-10-31T16:06:26;9.05;;;3.47;;
26253;SDS011;53339;51.378;0.094;2022-10-31T16:08:54;5.68;;;2.78;;
26253;SDS011;53339;51.378;0.094;2022-10-31T16:11:23;6.72;;;2.83;;
26253;SDS011;53339;51.378;0.094;2022-10-31T16:16:27;20.75;;;4.57;;
26253;SDS011;53339;51.378;0.094;2022-10-31T16:19:02;15.35;;;4.28;;
26253;SDS011;53339;51.378;0.094;2022-10-31T16:21:33;6.20;;;2.95;;
26253;SDS011;53339;51.378;0.094;2022-10-31T16:24:15;7.78;;;3.22;;
26253;SDS011;53339;51.378;0.094;2022-10-31T16:26:50;7.30;;;2.50;;
26253;SDS011;53339;51.378;0.094;2022-10-31T16:29:24;5.75;;;2.65;;
26253;SDS011;53339;51.378;0.094;2022-10-31T16:31:59;7.03;;;3.28;;
26253;SDS011;53339;51.378;0.094;2022-10-31T16:34:27;14.13;;;3.20;;
26253;SDS011;53339;51.378;0.094;2022-10-31T16:36:54;6.95;;;2.72;;
26253;SDS011;53339;51.378;0.094;2022-10-31T16:39:22;5.85;;;2.92;;
26253;SDS011;53339;51.378;0.094;2022-10-31T16:41:54;6.35;;;2.75;;
26253;SDS011;53339;51.378;0.094;2022-10-31T16:44:24;6.03;;;2.53;;
26253;SDS011;53339;51.378;0.094;2022-10-31T16:52:02;10.70;;;3.25;;
26253;SDS011;53339;51.378;0.094;2022-10-31T16:54:30;8.27;;;2.92;;
26253;SDS011;53339;51.378;0.094;2022-10-31T16:56:58;8.27;;;3.20;;
26253;SDS011;53339;51.378;0.094;2022-10-31T16:59:27;6.35;;;3.03;;
26253;SDS011;53339;51.378;0.094;2022-10-31T17:01:54;8.63;;;3.10;;
26253;SDS011;53339;51.378;0.094;2022-10-31T17:04:22;9.40;;;3.03;;
26253;SDS011;53339;51.378;0.094;2022-10-31T17:06:50;7.13;;;2.85;;
26253;SDS011;53339;51.378;0.094;2022-10-31T17:09:17;8.38;;;3.88;;
26253;SDS011;53339;51.378;0.094;2022-10-31T17:11:46;9.82;;;4.28;;
26253;SDS011;53339;51.378;0.094;2022-10-31T17:14:17;14.70;;;5.22;;
26253;SDS011;53339;51.378;0.094;2022-10-31T17:16:45;11.55;;;4.90;;
26253;SDS011;53339;51.378;0.094;2022-10-31T17:19:12;12.05;;;4.47;;
26253;SDS011;53339;51.378;0.094;2022-10-31T17:21:40;8.88;;;4.20;;
26253;SDS011;53339;51.378;0.094;2022-10-31T17:24:10;11.30;;;5.47;;
26253;SDS011;53339;51.378;0.094;2022-10-31T17:26:40;9.55;;;4.85;;
26253;SDS011;53339;51.378;0.094;2022-10-31T17:29:08;12.75;;;5.10;;
26253;SDS011;53339;51.378;0.094;2022-10-31T17:31:35;11.82;;;5.78;;
26253;SDS011;53339;51.378;0.094;2022-10-31T17:34:05;14.15;;;5.57;;
26253;SDS011;53339;51.378;0.094;2022-10-31T17:36:34;16.02;;;6.22;;
26253;SDS011;53339;51.378;0.094;2022-10-31T17:39:02;11.32;;;5.43;;
26253;SDS011;53339;51.378;0.094;2022-10-31T17:41:31;14.75;;;5.82;;
26253;SDS011;53339;51.378;0.094;2022-10-31T17:43:59;14.93;;;6.57;;
26253;SDS011;53339;51.378;0.094;2022-10-31T17:46:26;15.55;;;6.53;;
26253;SDS011;53339;51.378;0.094;2022-10-31T17:48:54;15.27;;;6.88;;
26253;SDS011;53339;51.378;0.094;2022-10-31T17:51:22;17.25;;;7.05;;
26253;SDS011;53339;51.378;0.094;2022-10-31T17:53:49;17.35;;;7.38;;
26253;SDS011;53339;51.378;0.094;2022-10-31T17:56:17;16.48;;;7.72;;
26253;SDS011;53339;51.378;0.094;2022-10-31T17:58:44;17.70;;;7.43;;
26253;SDS011;53339;51.378;0.094;2022-10-31T18:01:14;17.75;;;8.70;;
26253;SDS011;53339;51.378;0.094;2022-10-31T18:03:43;19.90;;;9.50;;
26253;SDS011;53339;51.378;0.094;2022-10-31T18:06:11;20.77;;;9.75;;
26253;SDS011;53339;51.378;0.094;2022-10-31T18:08:42;19.15;;;8.70;;
26253;SDS011;53339;51.378;0.094;2022-10-31T18:11:12;20.65;;;9.25;;
26253;SDS011;53339;51.378;0.094;2022-10-31T18:13:42;19.55;;;9.52;;
26253;SDS011;53339;51.378;0.094;2022-10-31T18:16:11;21.42;;;9.52;;
26253;SDS011;53339;51.378;0.094;2022-10-31T18:18:42;19.38;;;8.98;;
26253;SDS011;53339;51.378;0.094;2022-10-31T18:21:10;23.13;;;10.02;;
26253;SDS011;53339;51.378;0.094;2022-10-31T18:23:37;24.17;;;10.20;;
26253;SDS011;53339;51.378;0.094;2022-10-31T18:26:05;19.35;;;10.93;;
26253;SDS011;53339;51.378;0.094;2022-10-31T18:28:32;27.35;;;12.50;;